Time;durP1;ratioP1;P1;durP2;ratioP2;P2;SDS_P1;SDS_P2;PMS_P1;PMS_P2;Temp;Humidity;BMP_temperature;BMP_pressure;BME280_temperature;BME280_humidity;BME280_pressure;Samples;Min_cycle;Max_cycle;Signal;HPM_P1;HPM_P2
2023/02/13 00:01:15;;;;;;;5.20;2.90;;;;;;;;;;105133;1267;62735;-66
2023/02/13 00:03:44;;;;;;;4.40;2.50;;;;;;;;;;105101;1253;62840;-66
2023/02/13 00:06:13;;;;;;;5.90;3.10;;;;;;;;;;104998;1265;63633;-66
2023/02/13 00:08:41;;;;;;;4.70;2.80;;;;;;;;;;105069;1250;62826;-68
2023/02/13 00:11:14;;;;;;;4.30;2.70;;;;;;;;;;105068;1253;62808;-67
2023/02/13 00:13:50;;;;;;;3.40;2.70;;;;;;;;;;105016;1252;62818;-68
2023/02/13 00:16:18;;;;;;;4.20;2.70;;;;;;;;;;105011;1249;62928;-68
2023/02/13 00:18:46;;;;;;;4.70;3.00;;;;;;;;;;105048;1253;63205;-67
2023/02/13 00:21:15;;;;;;;4.70;2.80;;;;;;;;;;105051;1252;62822;-67
2023/02/13 00:23:43;;;;;;;5.50;2.90;;;;;;;;;;105078;1267;62830;-67
2023/02/13 00:26:12;;;;;;;3.80;2.20;;;;;;;;;;104978;1253;62834;-67
2023/02/13 00:28:42;;;;;;;4.80;2.90;;;;;;;;;;105015;1254;63151;-67
2023/02/13 00:31:12;;;;;;;3.50;2.30;;;;;;;;;;104934;1251;62807;-66
2023/02/13 00:33:41;;;;;;;5.90;2.50;;;;;;;;;;104957;1262;62841;-67
2023/02/13 00:36:14;;;;;;;3.70;2.70;;;;;;;;;;105095;1253;62817;-67
2023/02/13 00:38:42;;;;;;;3.70;2.10;;;;;;;;;;105070;1254;62947;-67
2023/02/13 00:41:11;;;;;;;3.00;2.10;;;;;;;;;;104960;1252;62850;-67
2023/02/13 00:43:40;;;;;;;3.30;2.20;;;;;;;;;;105069;1268;62755;-67
2023/02/13 00:46:08;;;;;;;3.50;1.90;;;;;;;;;;104973;1271;62835;-67
2023/02/13 00:48:36;;;;;;;4.10;2.00;;;;;;;;;;105042;1254;62860;-66
2023/02/13 00:51:05;;;;;;;4.10;2.20;;;;;;;;;;105048;1252;62822;-66
2023/02/13 00:53:34;;;;;;;6.30;2.30;;;;;;;;;;105102;1252;62838;-67
2023/02/13 00:56:02;;;;;;;4.60;2.30;;;;;;;;;;105240;1256;62787;-66
2023/02/13 00:58:33;;;;;;;5.80;2.30;;;;;;;;;;105000;1254;62899;-67
2023/02/13 01:01:02;;;;;;;2.90;2.40;;;;;;;;;;105089;1252;62840;-66
2023/02/13 01:03:30;;;;;;;5.10;2.20;;;;;;;;;;104760;1256;62860;-69
2023/02/13 01:05:59;;;;;;;3.20;2.10;;;;;;;;;;105018;1269;62844;-67
2023/02/13 01:08:27;;;;;;;4.60;2.20;;;;;;;;;;105258;1251;62719;-68
2023/02/13 01:10:55;;;;;;;4.00;2.00;;;;;;;;;;105033;1266;62847;-67
2023/02/13 01:13:25;;;;;;;3.30;2.50;;;;;;;;;;105000;1252;62830;-67
2023/02/13 01:15:58;;;;;;;4.60;2.80;;;;;;;;;;105084;1253;62864;-67
2023/02/13 01:18:28;;;;;;;2.40;1.80;;;;;;;;;;104832;1250;62824;-66
2023/02/13 01:20:56;;;;;;;5.20;2.40;;;;;;;;;;104661;1255;62762;-66
2023/02/13 01:23:32;;;;;;;3.40;1.80;;;;;;;;;;105012;1254;63247;-66
2023/02/13 01:26:02;;;;;;;2.80;1.90;;;;;;;;;;105024;1254;62907;-66
2023/02/13 01:28:30;;;;;;;3.30;1.90;;;;;;;;;;105068;1249;62836;-66
2023/02/13 01:30:59;;;;;;;4.30;2.50;;;;;;;;;;105083;1266;62791;-66
2023/02/13 01:33:29;;;;;;;2.80;1.80;;;;;;;;;;105017;1262;62725;-66
2023/02/13 01:35:59;;;;;;;3.10;1.40;;;;;;;;;;105038;1268;62811;-66
2023/02/13 01:38:30;;;;;;;3.00;1.40;;;;;;;;;;105052;1268;61733;-67
2023/02/13 01:40:59;;;;;;;4.80;1.70;;;;;;;;;;104944;1253;62824;-67
2023/02/13 01:43:43;;;;;;;1.90;1.40;;;;;;;;;;105130;1252;62803;-67
2023/02/13 01:46:12;;;;;;;2.70;2.00;;;;;;;;;;104617;1255;62828;-66
2023/02/13 01:48:40;;;;;;;5.00;2.20;;;;;;;;;;105067;1254;62851;-67
2023/02/13 01:51:12;;;;;;;4.10;2.00;;;;;;;;;;105137;1253;62815;-67
2023/02/13 01:53:45;;;;;;;3.50;2.00;;;;;;;;;;104816;1257;62912;-66
2023/02/13 01:56:17;;;;;;;3.40;2.10;;;;;;;;;;105168;1265;64183;-67
2023/02/13 01:58:46;;;;;;;4.40;2.10;;;;;;;;;;104954;1252;62818;-67
2023/02/13 02:01:19;;;;;;;3.70;2.50;;;;;;;;;;104969;1251;62993;-66
2023/02/13 02:03:50;;;;;;;2.70;1.70;;;;;;;;;;105091;1255;62832;-66
2023/02/13 02:06:33;;;;;;;3.50;2.10;;;;;;;;;;105003;1271;62925;-66
2023/02/13 02:09:03;;;;;;;3.90;1.90;;;;;;;;;;105027;1261;62803;-66
2023/02/13 02:11:33;;;;;;;3.80;2.30;;;;;;;;;;104718;1256;62791;-68
2023/02/13 02:14:06;;;;;;;3.20;2.00;;;;;;;;;;105095;1249;62820;-66
2023/02/13 02:16:34;;;;;;;2.70;1.70;;;;;;;;;;105149;1255;62736;-67
2023/02/13 02:19:04;;;;;;;3.50;2.00;;;;;;;;;;104970;1257;62828;-70
2023/02/13 02:21:44;;;;;;;5.20;2.30;;;;;;;;;;104721;1268;62716;-66
2023/02/13 02:24:12;;;;;;;;;;;;;;;;;;105033;1253;62704;-66
2023/02/13 02:26:40;;;;;;;3.80;1.90;;;;;;;;;;105107;1260;62698;-67
2023/02/13 02:29:37;;;;;;;3.40;2.00;;;;;;;;;;104969;1255;62821;-65
2023/02/13 02:32:14;;;;;;;2.90;1.80;;;;;;;;;;104876;1271;62900;-66
2023/02/13 02:34:51;;;;;;;3.10;1.80;;;;;;;;;;105075;1254;62895;-66
2023/02/13 02:37:22;;;;;;;3.90;1.90;;;;;;;;;;104875;1253;62670;-67
2023/02/13 02:40:06;;;;;;;3.90;1.60;;;;;;;;;;104768;1265;61966;-67
2023/02/13 02:42:53;;;;;;;2.50;1.50;;;;;;;;;;105077;1252;62679;-67
2023/02/13 02:45:22;;;;;;;;;;;;;;;;;;104693;1256;62455;-67
2023/02/13 02:50:45;;;;;;;2.40;1.90;;;;;;;;;;104816;1270;62038;-67
2023/02/13 02:53:16;;;;;;;2.30;1.80;;;;;;;;;;105265;1253;61628;-67
2023/02/13 02:56:03;;;;;;;2.40;1.80;;;;;;;;;;104738;1254;62140;-67
2023/02/13 03:07:07;;;;;;;2.70;2.30;;;;;;;;;;104759;1254;61124;-67
2023/02/13 03:15:16;;;;;;;2.20;1.80;;;;;;;;;;105057;1256;61651;-67
2023/02/13 03:23:20;;;;;;;;;;;;;;;;;;105073;1253;61699;-66
2023/02/13 03:25:51;;;;;;;2.30;1.30;;;;;;;;;;105216;1253;61554;-67
2023/02/13 03:31:07;;;;;;;3.50;1.80;;;;;;;;;;105094;1256;61959;-66
2023/02/13 03:33:38;;;;;;;3.30;2.00;;;;;;;;;;105096;1251;61670;-67
2023/02/13 03:39:16;;;;;;;1.80;1.60;;;;;;;;;;105148;1254;61643;-68
2023/02/13 03:41:50;;;;;;;3.20;2.20;;;;;;;;;;105093;1253;61899;-67
2023/02/13 03:44:19;;;;;;;2.50;1.70;;;;;;;;;;105028;1253;61600;-67
2023/02/13 03:46:47;;;;;;;3.40;1.90;;;;;;;;;;105379;1253;61691;-67
2023/02/13 03:52:35;;;;;;;4.80;2.00;;;;;;;;;;105048;1253;61702;-68
2023/02/13 04:00:50;;;;;;;3.70;2.40;;;;;;;;;;105133;1263;62137;-69
2023/02/13 04:03:24;;;;;;;3.40;2.30;;;;;;;;;;105016;1267;61565;-68
2023/02/13 04:05:55;;;;;;;3.50;1.60;;;;;;;;;;105117;1254;61717;-68
2023/02/13 04:08:23;;;;;;;2.80;2.00;;;;;;;;;;105131;1260;62292;-68
2023/02/13 04:11:18;;;;;;;4.30;2.20;;;;;;;;;;105127;1255;61690;-68
2023/02/13 04:13:57;;;;;;;2.70;2.00;;;;;;;;;;104961;1255;61631;-68
2023/02/13 04:16:40;;;;;;;2.20;2.00;;;;;;;;;;104771;1256;61707;-68
2023/02/13 04:19:08;;;;;;;2.90;2.00;;;;;;;;;;104883;1262;61695;-68
2023/02/13 04:21:39;;;;;;;2.80;1.70;;;;;;;;;;105027;1263;60697;-68
2023/02/13 04:24:07;;;;;;;2.20;1.80;;;;;;;;;;105127;1250;61686;-68
2023/02/13 04:26:36;;;;;;;3.20;1.80;;;;;;;;;;105229;1254;61702;-69
2023/02/13 04:29:04;;;;;;;2.60;1.80;;;;;;;;;;105212;1250;61689;-66
2023/02/13 04:31:33;;;;;;;2.50;2.00;;;;;;;;;;105082;1260;61682;-67
2023/02/13 04:34:01;;;;;;;2.70;2.30;;;;;;;;;;105246;1254;61635;-66
2023/02/13 04:36:29;;;;;;;4.90;2.20;;;;;;;;;;105036;1254;61702;-67
2023/02/13 04:38:58;;;;;;;3.70;2.40;;;;;;;;;;105191;1254;61787;-67
2023/02/13 04:41:26;;;;;;;4.20;2.30;;;;;;;;;;105041;1249;62052;-66
2023/02/13 04:43:56;;;;;;;2.60;2.00;;;;;;;;;;104936;1255;61739;-67
2023/02/13 04:46:24;;;;;;;4.10;2.80;;;;;;;;;;105136;1261;61685;-67
2023/02/13 04:48:52;;;;;;;3.00;2.50;;;;;;;;;;105199;1252;61712;-68
2023/02/13 04:51:21;;;;;;;5.80;2.80;;;;;;;;;;105117;1271;61683;-67
2023/02/13 04:53:49;;;;;;;4.20;2.70;;;;;;;;;;105173;1252;61628;-67
2023/02/13 04:56:17;;;;;;;4.10;2.90;;;;;;;;;;105102;1267;61638;-67
2023/02/13 04:58:47;;;;;;;2.40;2.10;;;;;;;;;;105327;1249;61613;-67
2023/02/13 05:01:15;;;;;;;3.90;2.40;;;;;;;;;;105100;1253;61551;-65
2023/02/13 05:03:44;;;;;;;4.60;2.70;;;;;;;;;;105011;1257;61588;-68
2023/02/13 05:06:12;;;;;;;4.50;2.60;;;;;;;;;;105069;1268;63138;-68
2023/02/13 05:08:41;;;;;;;4.00;3.40;;;;;;;;;;105085;1253;61768;-68
2023/02/13 05:11:09;;;;;;;5.80;3.20;;;;;;;;;;105084;1251;61696;-69
2023/02/13 05:13:41;;;;;;;3.70;3.20;;;;;;;;;;105050;1267;61706;-69
2023/02/13 05:16:10;;;;;;;6.00;3.30;;;;;;;;;;105121;1254;61000;-69
2023/02/13 05:18:38;;;;;;;3.90;3.20;;;;;;;;;;105140;1254;61712;-69
2023/02/13 05:23:53;;;;;;;3.60;2.60;;;;;;;;;;105165;1262;61676;-68
2023/02/13 05:26:22;;;;;;;4.00;2.80;;;;;;;;;;105149;1254;61688;-69
2023/02/13 05:31:37;;;;;;;6.40;2.70;;;;;;;;;;105100;1252;61718;-68
2023/02/13 05:34:06;;;;;;;5.30;2.70;;;;;;;;;;104913;1254;61667;-68
2023/02/13 05:36:34;;;;;;;6.40;2.70;;;;;;;;;;105025;1251;61779;-72
2023/02/13 05:39:02;;;;;;;3.20;2.40;;;;;;;;;;105333;1252;61698;-70
2023/02/13 05:41:31;;;;;;;3.00;2.70;;;;;;;;;;105335;1256;61699;-69
2023/02/13 05:43:59;;;;;;;6.70;3.00;;;;;;;;;;105487;1249;61722;-70
2023/02/13 05:46:27;;;;;;;4.70;2.90;;;;;;;;;;105068;1251;61713;-67
2023/02/13 05:51:37;;;;;;;4.50;2.70;;;;;;;;;;102068;1288;599997;-70
2023/02/13 05:54:05;;;;;;;3.30;2.50;;;;;;;;;;104760;1257;60325;-65
2023/02/13 05:56:34;;;;;;;3.70;2.70;;;;;;;;;;104708;1255;60160;-66
2023/02/13 05:59:02;;;;;;;3.80;2.80;;;;;;;;;;104695;1257;60271;-64
2023/02/13 06:01:31;;;;;;;3.50;2.90;;;;;;;;;;104794;1259;60201;-70
2023/02/13 06:03:59;;;;;;;5.00;4.00;;;;;;;;;;104611;1260;60138;-71
2023/02/13 06:06:30;;;;;;;6.40;3.70;;;;;;;;;;104622;1257;60267;-70
2023/02/13 06:08:59;;;;;;;5.40;4.00;;;;;;;;;;105020;1258;60287;-71
2023/02/13 06:11:28;;;;;;;5.50;3.80;;;;;;;;;;105434;1250;60258;-67
2023/02/13 06:13:56;;;;;;;4.50;3.60;;;;;;;;;;105437;1255;60158;-66
2023/02/13 06:16:30;;;;;;;4.00;3.00;;;;;;;;;;105529;1260;60708;-67
2023/02/13 06:18:58;;;;;;;5.90;3.40;;;;;;;;;;105452;1250;60872;-68
2023/02/13 06:21:26;;;;;;;5.00;3.20;;;;;;;;;;105505;1249;60834;-66
2023/02/13 06:23:55;;;;;;;4.10;3.40;;;;;;;;;;105535;1265;60850;-67
2023/02/13 06:26:23;;;;;;;5.00;3.70;;;;;;;;;;105660;1250;60856;-68
2023/02/13 06:28:51;;;;;;;6.50;3.90;;;;;;;;;;105420;1249;60745;-67
2023/02/13 06:31:19;;;;;;;5.00;3.80;;;;;;;;;;105529;1247;60857;-69
2023/02/13 06:33:48;;;;;;;5.90;3.80;;;;;;;;;;105368;1245;60869;-68
2023/02/13 06:36:16;;;;;;;5.40;3.70;;;;;;;;;;105616;1246;60921;-66
2023/02/13 06:38:44;;;;;;;5.90;3.60;;;;;;;;;;105467;1256;60853;-67
2023/02/13 06:41:12;;;;;;;5.30;3.60;;;;;;;;;;105512;1245;60895;-70
2023/02/13 06:43:41;;;;;;;5.20;3.60;;;;;;;;;;105352;1266;60850;-69
2023/02/13 06:46:09;;;;;;;6.40;4.00;;;;;;;;;;105387;1245;60840;-62
2023/02/13 06:48:38;;;;;;;5.80;4.30;;;;;;;;;;105470;1250;60992;-69
2023/02/13 06:51:06;;;;;;;5.60;3.80;;;;;;;;;;105549;1250;60750;-73
2023/02/13 06:53:34;;;;;;;6.30;4.00;;;;;;;;;;105731;1250;60844;-72
2023/02/13 06:56:03;;;;;;;5.30;3.90;;;;;;;;;;105648;1250;60911;-64
2023/02/13 06:58:32;;;;;;;5.30;4.10;;;;;;;;;;105519;1250;60676;-64
2023/02/13 07:01:01;;;;;;;9.10;4.10;;;;;;;;;;105598;1256;60754;-66
2023/02/13 07:03:29;;;;;;;6.60;4.50;;;;;;;;;;105359;1249;60872;-65
2023/02/13 07:05:57;;;;;;;7.30;4.90;;;;;;;;;;105492;1246;60847;-64
2023/02/13 07:08:26;;;;;;;7.10;3.90;;;;;;;;;;105673;1256;60818;-64
2023/02/13 07:10:55;;;;;;;5.60;4.20;;;;;;;;;;105442;1261;60806;-64
2023/02/13 07:13:24;;;;;;;5.00;3.80;;;;;;;;;;105771;1250;60856;-64
2023/02/13 07:15:52;;;;;;;4.80;4.00;;;;;;;;;;105430;1250;60778;-64
2023/02/13 07:18:20;;;;;;;7.30;5.00;;;;;;;;;;105397;1260;60792;-64
2023/02/13 07:20:48;;;;;;;7.40;5.00;;;;;;;;;;105495;1260;60268;-63
2023/02/13 07:23:17;;;;;;;7.40;4.30;;;;;;;;;;105755;1254;60386;-65
2023/02/13 07:25:45;;;;;;;8.10;4.50;;;;;;;;;;105551;1250;60856;-66
2023/02/13 07:28:14;;;;;;;6.60;5.20;;;;;;;;;;105565;1248;60869;-64
2023/02/13 07:30:42;;;;;;;6.30;4.30;;;;;;;;;;105766;1248;60809;-63
2023/02/13 07:33:10;;;;;;;9.80;5.60;;;;;;;;;;105617;1252;60850;-62
2023/02/13 07:35:45;;;;;;;6.80;5.20;;;;;;;;;;105467;1261;60725;-67
2023/02/13 07:38:14;;;;;;;7.30;5.70;;;;;;;;;;105411;1268;60942;-64
2023/02/13 07:40:42;;;;;;;9.00;5.20;;;;;;;;;;105401;1246;60879;-63
2023/02/13 07:43:11;;;;;;;6.40;5.40;;;;;;;;;;105429;1251;60891;-65
2023/02/13 07:45:40;;;;;;;7.50;5.00;;;;;;;;;;105479;1245;60877;-68
2023/02/13 07:48:09;;;;;;;6.40;5.40;;;;;;;;;;105401;1251;61158;-62
2023/02/13 07:50:37;;;;;;;13.10;7.10;;;;;;;;;;105563;1246;61180;-65
2023/02/13 07:53:06;;;;;;;7.50;6.10;;;;;;;;;;105429;1247;60882;-63
2023/02/13 07:55:34;;;;;;;6.30;5.30;;;;;;;;;;105679;1247;60885;-65
2023/02/13 07:58:02;;;;;;;8.90;6.60;;;;;;;;;;105498;1247;60873;-65
2023/02/13 08:00:31;;;;;;;8.50;6.70;;;;;;;;;;105431;1251;61483;-65
2023/02/13 08:02:59;;;;;;;12.20;7.50;;;;;;;;;;105511;1248;61196;-64
2023/02/13 08:05:28;;;;;;;9.50;7.10;;;;;;;;;;105496;1252;60882;-62
2023/02/13 08:07:57;;;;;;;8.30;6.40;;;;;;;;;;105427;1253;60809;-63
2023/02/13 08:13:18;;;;;;;10.00;7.60;;;;;;;;;;105663;1248;60873;-64
2023/02/13 08:15:47;;;;;;;9.50;6.20;;;;;;;;;;105925;1250;60764;-61
2023/02/13 08:18:16;;;;;;;8.20;6.60;;;;;;;;;;105354;1253;60755;-61
2023/02/13 08:20:47;;;;;;;10.00;8.20;;;;;;;;;;106196;1248;60873;-61
2023/02/13 08:23:15;;;;;;;13.40;7.90;;;;;;;;;;105919;1248;60898;-61
2023/02/13 08:25:46;;;;;;;9.40;7.60;;;;;;;;;;105794;1248;60796;-68
2023/02/13 08:28:15;;;;;;;12.00;8.30;;;;;;;;;;105943;1251;60895;-68
2023/02/13 08:30:43;;;;;;;10.60;7.50;;;;;;;;;;105495;1250;60750;-68
2023/02/13 08:33:12;;;;;;;9.30;7.40;;;;;;;;;;105959;1249;60906;-66
2023/02/13 08:35:40;;;;;;;8.60;7.20;;;;;;;;;;105658;1264;60866;-67
2023/02/13 08:38:12;;;;;;;12.10;8.70;;;;;;;;;;105658;1246;60821;-67
2023/02/13 08:40:40;;;;;;;10.00;8.00;;;;;;;;;;105516;1248;60326;-67
2023/02/13 08:43:09;;;;;;;11.30;8.40;;;;;;;;;;105558;1247;60955;-66
2023/02/13 08:45:38;;;;;;;10.10;8.30;;;;;;;;;;105385;1263;60892;-65
2023/02/13 08:48:06;;;;;;;9.60;8.50;;;;;;;;;;105470;1254;60750;-66
2023/02/13 08:50:35;;;;;;;12.80;8.90;;;;;;;;;;105640;1250;60871;-65
2023/02/13 08:53:04;;;;;;;9.30;7.60;;;;;;;;;;105455;1258;60853;-67
2023/02/13 08:55:32;;;;;;;9.50;8.50;;;;;;;;;;106032;1248;61017;-67
2023/02/13 08:58:01;;;;;;;10.40;8.20;;;;;;;;;;105291;1253;60968;-67
2023/02/13 09:00:30;;;;;;;11.10;8.70;;;;;;;;;;105668;1247;60879;-66
2023/02/13 09:03:01;;;;;;;12.80;8.80;;;;;;;;;;105706;1248;60770;-65
2023/02/13 09:05:32;;;;;;;11.20;8.80;;;;;;;;;;105960;1248;60782;-66
2023/02/13 09:08:02;;;;;;;12.60;9.70;;;;;;;;;;105613;1247;60895;-67
2023/02/13 09:10:31;;;;;;;13.20;9.50;;;;;;;;;;105765;1248;60953;-69
2023/02/13 09:13:00;;;;;;;11.70;9.30;;;;;;;;;;105810;1251;60863;-68
2023/02/13 09:15:28;;;;;;;11.70;8.40;;;;;;;;;;105522;1248;60882;-67
2023/02/13 09:17:57;;;;;;;11.00;9.10;;;;;;;;;;105721;1262;60754;-60
2023/02/13 09:20:25;;;;;;;10.30;9.00;;;;;;;;;;105587;1250;60696;-60
2023/02/13 09:22:54;;;;;;;12.50;8.80;;;;;;;;;;105363;1259;60883;-61
2023/02/13 09:25:23;;;;;;;12.10;9.40;;;;;;;;;;105400;1250;60883;-60
2023/02/13 09:27:51;;;;;;;12.80;9.00;;;;;;;;;;105450;1254;60902;-59
2023/02/13 09:30:24;;;;;;;12.20;8.80;;;;;;;;;;105660;1251;61213;-60
2023/02/13 09:32:53;;;;;;;12.30;9.20;;;;;;;;;;105935;1248;60868;-60
2023/02/13 09:35:21;;;;;;;13.10;9.00;;;;;;;;;;105699;1248;61240;-61
2023/02/13 09:37:49;;;;;;;12.60;7.60;;;;;;;;;;105779;1263;60859;-61
2023/02/13 09:40:20;;;;;;;12.20;9.00;;;;;;;;;;105884;1247;60211;-62
2023/02/13 09:42:48;;;;;;;13.30;9.30;;;;;;;;;;105605;1247;60885;-62
2023/02/13 09:45:16;;;;;;;10.50;8.00;;;;;;;;;;105700;1253;60696;-62
2023/02/13 09:47:45;;;;;;;14.00;10.20;;;;;;;;;;105335;1247;60901;-61
2023/02/13 09:50:18;;;;;;;12.40;9.60;;;;;;;;;;105083;1254;60978;-61
2023/02/13 09:52:46;;;;;;;12.10;8.70;;;;;;;;;;105667;1248;60866;-68
2023/02/13 09:55:16;;;;;;;12.10;9.90;;;;;;;;;;105513;1250;60895;-66
2023/02/13 09:57:47;;;;;;;11.60;9.50;;;;;;;;;;105378;1250;60750;-66
2023/02/13 10:00:51;;;;;;;12.50;9.80;;;;;;;;;;105460;1248;61714;-68
2023/02/13 10:03:43;;;;;;;12.10;9.10;;;;;;;;;;104719;1254;61775;-68
2023/02/13 10:06:29;;;;;;;11.00;8.90;;;;;;;;;;105213;1263;61625;-69
2023/02/13 10:09:01;;;;;;;11.60;8.80;;;;;;;;;;105915;1248;61669;-68
2023/02/13 10:11:35;;;;;;;12.10;8.80;;;;;;;;;;105847;1257;61711;-68
2023/02/13 10:14:16;;;;;;;11.80;9.10;;;;;;;;;;105807;1251;61691;-66
2023/02/13 10:17:01;;;;;;;9.00;7.50;;;;;;;;;;105479;1253;61671;-69
2023/02/13 10:19:40;;;;;;;10.20;8.10;;;;;;;;;;105387;1248;61605;-67
2023/02/13 10:22:16;;;;;;;10.30;8.50;;;;;;;;;;105481;1247;61694;-67
2023/02/13 10:24:49;;;;;;;10.40;8.50;;;;;;;;;;105892;1246;61637;-69
2023/02/13 10:27:22;;;;;;;10.90;8.90;;;;;;;;;;105080;1259;61774;-67
2023/02/13 10:30:04;;;;;;;11.00;8.70;;;;;;;;;;105379;1252;62116;-66
2023/02/13 10:32:35;;;;;;;12.80;9.10;;;;;;;;;;106085;1246;61662;-70
2023/02/13 10:35:13;;;;;;;11.90;9.10;;;;;;;;;;105640;1251;61668;-67
2023/02/13 10:37:41;;;;;;;9.90;8.00;;;;;;;;;;105853;1246;61586;-67
2023/02/13 10:40:10;;;;;;;8.50;7.60;;;;;;;;;;105386;1249;61704;-64
2023/02/13 10:42:40;;;;;;;12.20;9.30;;;;;;;;;;105550;1255;61682;-67
2023/02/13 10:45:09;;;;;;;12.20;9.40;;;;;;;;;;105245;1254;61646;-66
2023/02/13 10:47:52;;;;;;;11.00;9.50;;;;;;;;;;106012;1250;61558;-66
2023/02/13 10:50:20;;;;;;;12.10;9.60;;;;;;;;;;105864;1252;61694;-69
2023/02/13 10:52:50;;;;;;;9.60;8.40;;;;;;;;;;105626;1251;61670;-67
2023/02/13 10:55:18;;;;;;;10.40;8.50;;;;;;;;;;105429;1248;61678;-69
2023/02/13 10:57:56;;;;;;;9.10;7.90;;;;;;;;;;105682;1248;61563;-69
2023/02/13 11:00:24;;;;;;;;;;;;;;;;;;105968;1248;61587;-67
2023/02/13 11:02:54;;;;;;;9.30;7.70;;;;;;;;;;105561;1251;61660;-66
2023/02/13 11:05:24;;;;;;;9.70;8.10;;;;;;;;;;105908;1250;61593;-67
2023/02/13 11:07:52;;;;;;;10.60;8.00;;;;;;;;;;105428;1250;61695;-64
2023/02/13 11:10:21;;;;;;;10.50;8.50;;;;;;;;;;105642;1250;61626;-68
2023/02/13 11:12:50;;;;;;;9.10;7.60;;;;;;;;;;105594;1258;61683;-67
2023/02/13 11:15:28;;;;;;;9.60;8.20;;;;;;;;;;105696;1249;61688;-69
2023/02/13 11:17:58;;;;;;;7.70;6.90;;;;;;;;;;105534;1262;61718;-70
2023/02/13 11:20:34;;;;;;;8.80;7.50;;;;;;;;;;105366;1253;61490;-70
2023/02/13 11:23:21;;;;;;;9.50;7.80;;;;;;;;;;105678;1247;61568;-69
2023/02/13 11:25:57;;;;;;;9.00;7.90;;;;;;;;;;105904;1248;61701;-68
2023/02/13 11:28:26;;;;;;;10.30;8.20;;;;;;;;;;105516;1251;61617;-68
2023/02/13 11:31:15;;;;;;;11.10;7.90;;;;;;;;;;105726;1263;61675;-68
2023/02/13 11:33:44;;;;;;;10.30;7.70;;;;;;;;;;105313;1263;61088;-69
2023/02/13 11:36:13;;;;;;;8.90;7.70;;;;;;;;;;105780;1250;61743;-71
2023/02/13 11:38:41;;;;;;;8.40;7.40;;;;;;;;;;105661;1248;61691;-70
2023/02/13 11:41:11;;;;;;;9.80;7.00;;;;;;;;;;105357;1248;61630;-64
2023/02/13 11:43:45;;;;;;;8.30;6.40;;;;;;;;;;105662;1247;61647;-65
2023/02/13 11:46:22;;;;;;;6.60;5.80;;;;;;;;;;105697;1264;61710;-64
2023/02/13 11:48:56;;;;;;;7.00;6.30;;;;;;;;;;105575;1250;61599;-65
2023/02/13 11:51:44;;;;;;;7.00;6.30;;;;;;;;;;105474;1248;61620;-64
2023/02/13 11:54:12;;;;;;;;;;;;;;;;;;105251;1253;61676;-64
2023/02/13 11:56:46;;;;;;;8.60;6.90;;;;;;;;;;105342;1263;61698;-67
2023/02/13 11:59:32;;;;;;;6.00;5.40;;;;;;;;;;106091;1247;61692;-64
2023/02/13 12:02:01;;;;;;;6.40;5.70;;;;;;;;;;105754;1251;61556;-63
2023/02/13 12:04:29;;;;;;;8.50;6.50;;;;;;;;;;105865;1248;62028;-65
2023/02/13 12:07:00;;;;;;;7.40;5.90;;;;;;;;;;105316;1252;62090;-65
2023/02/13 12:09:28;;;;;;;7.30;5.70;;;;;;;;;;105869;1247;61570;-64
2023/02/13 12:11:58;;;;;;;7.60;6.20;;;;;;;;;;105615;1263;62951;-64
2023/02/13 12:14:28;;;;;;;9.20;6.40;;;;;;;;;;105578;1255;61692;-66
2023/02/13 12:17:07;;;;;;;8.60;6.30;;;;;;;;;;105996;1248;61909;-65
2023/02/13 12:19:41;;;;;;;7.00;6.30;;;;;;;;;;105878;1249;62344;-65
2023/02/13 12:22:29;;;;;;;7.10;6.10;;;;;;;;;;105900;1247;61713;-67
2023/02/13 12:25:17;;;;;;;6.90;5.80;;;;;;;;;;105855;1249;61708;-65
2023/02/13 12:27:51;;;;;;;8.10;6.60;;;;;;;;;;105721;1250;61677;-64
2023/02/13 12:30:38;;;;;;;6.80;6.00;;;;;;;;;;106048;1246;61636;-64
2023/02/13 12:33:16;;;;;;;8.70;6.40;;;;;;;;;;105905;1247;61684;-63
2023/02/13 12:35:56;;;;;;;10.10;7.00;;;;;;;;;;105487;1250;61105;-64
2023/02/13 12:38:41;;;;;;;8.70;6.80;;;;;;;;;;105663;1251;61695;-66
2023/02/13 12:41:16;;;;;;;8.10;6.40;;;;;;;;;;105902;1250;61686;-62
2023/02/13 12:44:03;;;;;;;9.10;6.90;;;;;;;;;;105840;1247;61847;-63
2023/02/13 12:46:31;;;;;;;7.50;6.40;;;;;;;;;;105717;1247;61634;-62
2023/02/13 12:49:20;;;;;;;6.90;6.10;;;;;;;;;;105751;1247;62171;-62
2023/02/13 12:52:07;;;;;;;7.10;6.00;;;;;;;;;;105331;1247;61686;-62
2023/02/13 12:54:42;;;;;;;6.90;6.20;;;;;;;;;;105365;1250;61583;-62
2023/02/13 12:57:13;;;;;;;6.20;5.20;;;;;;;;;;105623;1258;61708;-69
2023/02/13 13:00:07;;;;;;;7.00;5.70;;;;;;;;;;105556;1251;61630;-69
2023/02/13 13:02:55;;;;;;;6.90;6.00;;;;;;;;;;105370;1254;61634;-67
2023/02/13 13:05:23;;;;;;;6.10;5.50;;;;;;;;;;105426;1247;61727;-70
2023/02/13 13:07:55;;;;;;;6.40;5.80;;;;;;;;;;105704;1250;61584;-71
2023/02/13 13:10:28;;;;;;;8.20;5.80;;;;;;;;;;105600;1248;61632;-71
2023/02/13 13:12:56;;;;;;;6.90;5.70;;;;;;;;;;106002;1246;61560;-71
2023/02/13 13:15:46;;;;;;;7.80;5.40;;;;;;;;;;105764;1248;61688;-71
2023/02/13 13:18:18;;;;;;;8.40;6.30;;;;;;;;;;105483;1247;62286;-68
2023/02/13 13:20:53;;;;;;;6.80;6.10;;;;;;;;;;105712;1250;62021;-71
2023/02/13 13:23:33;;;;;;;6.90;5.80;;;;;;;;;;105685;1248;61686;-68
2023/02/13 13:26:08;;;;;;;6.60;5.80;;;;;;;;;;105442;1248;61717;-70
2023/02/13 13:28:43;;;;;;;5.90;5.40;;;;;;;;;;105305;1247;62273;-69
2023/02/13 13:31:13;;;;;;;5.90;5.30;;;;;;;;;;105448;1247;61865;-69
2023/02/13 13:33:43;;;;;;;7.10;6.20;;;;;;;;;;105464;1262;61673;-68
2023/02/13 13:36:18;;;;;;;8.80;6.60;;;;;;;;;;105168;1247;61646;-69
2023/02/13 13:38:52;;;;;;;6.60;6.00;;;;;;;;;;105453;1246;61661;-72
2023/02/13 13:41:39;;;;;;;7.30;6.10;;;;;;;;;;105228;1255;62361;-66
2023/02/13 13:44:13;;;;;;;6.20;5.60;;;;;;;;;;105437;1251;61059;-68
2023/02/13 13:46:41;;;;;;;6.80;6.00;;;;;;;;;;105501;1248;61694;-68
2023/02/13 13:49:10;;;;;;;8.90;6.20;;;;;;;;;;105482;1248;61772;-71
2023/02/13 13:51:39;;;;;;;7.40;6.10;;;;;;;;;;105460;1253;62056;-65
2023/02/13 13:54:16;;;;;;;8.30;6.70;;;;;;;;;;105538;1251;61716;-66
2023/02/13 13:57:00;;;;;;;8.40;7.10;;;;;;;;;;105605;1248;61662;-66
2023/02/13 13:59:32;;;;;;;8.70;6.90;;;;;;;;;;105648;1251;61667;-71
2023/02/13 14:02:16;;;;;;;8.70;7.40;;;;;;;;;;105736;1247;61697;-67
2023/02/13 14:04:59;;;;;;;7.30;6.20;;;;;;;;;;105967;1247;61706;-62
2023/02/13 14:07:35;;;;;;;8.60;6.40;;;;;;;;;;105967;1251;61593;-62
2023/02/13 14:10:05;;;;;;;8.20;6.40;;;;;;;;;;105804;1249;61688;-61
2023/02/13 14:12:33;;;;;;;8.20;6.60;;;;;;;;;;105613;1247;61682;-62
2023/02/13 14:15:02;;;;;;;7.60;6.60;;;;;;;;;;105515;1248;61590;-63
2023/02/13 14:17:43;;;;;;;7.30;6.20;;;;;;;;;;105464;1248;61684;-64
2023/02/13 14:20:30;;;;;;;7.60;6.20;;;;;;;;;;105458;1257;61724;-61
2023/02/13 14:23:06;;;;;;;6.90;6.10;;;;;;;;;;105713;1251;61640;-62
2023/02/13 14:25:34;;;;;;;6.60;5.50;;;;;;;;;;105502;1251;61615;-60
2023/02/13 14:28:03;;;;;;;7.80;5.90;;;;;;;;;;105278;1247;61663;-60
2023/02/13 14:30:35;;;;;;;7.30;6.00;;;;;;;;;;105596;1253;62340;-60
2023/02/13 14:33:08;;;;;;;6.70;5.40;;;;;;;;;;105753;1247;61726;-61
2023/02/13 14:35:36;;;;;;;6.20;5.60;;;;;;;;;;105671;1250;61636;-61
2023/02/13 14:38:06;;;;;;;7.00;5.60;;;;;;;;;;105743;1252;61685;-61
2023/02/13 14:40:43;;;;;;;6.10;5.20;;;;;;;;;;105882;1251;61688;-58
2023/02/13 14:43:30;;;;;;;6.20;5.20;;;;;;;;;;105617;1252;61771;-60
2023/02/13 14:46:02;;;;;;;6.00;5.00;;;;;;;;;;105623;1253;61793;-59
2023/02/13 14:48:49;;;;;;;5.70;4.70;;;;;;;;;;105503;1248;61694;-60
2023/02/13 14:51:32;;;;;;;6.80;5.40;;;;;;;;;;105785;1247;61654;-59
2023/02/13 14:54:03;;;;;;;6.00;4.50;;;;;;;;;;105375;1263;61094;-60
2023/02/13 14:56:32;;;;;;;7.60;5.10;;;;;;;;;;105462;1251;61740;-60
2023/02/13 14:59:05;;;;;;;5.50;4.40;;;;;;;;;;105520;1250;61714;-61
2023/02/13 15:01:45;;;;;;;5.20;4.10;;;;;;;;;;105683;1247;61684;-63
2023/02/13 15:04:16;;;;;;;5.70;4.80;;;;;;;;;;105394;1247;61752;-62
2023/02/13 15:06:45;;;;;;;5.70;5.10;;;;;;;;;;105722;1251;61725;-63
2023/02/13 15:09:16;;;;;;;6.50;5.40;;;;;;;;;;105742;1250;61583;-63
2023/02/13 15:11:46;;;;;;;7.00;5.90;;;;;;;;;;106188;1250;61724;-62
2023/02/13 15:14:21;;;;;;;8.60;6.20;;;;;;;;;;105749;1255;61707;-62
2023/02/13 15:16:57;;;;;;;7.10;5.70;;;;;;;;;;105800;1253;61567;-64
2023/02/13 15:19:27;;;;;;;6.30;5.70;;;;;;;;;;105471;1251;61708;-63
2023/02/13 15:21:56;;;;;;;8.00;6.60;;;;;;;;;;105477;1246;61694;-65
2023/02/13 15:24:25;;;;;;;8.00;6.10;;;;;;;;;;105704;1247;61697;-64
2023/02/13 15:27:03;;;;;;;8.10;6.80;;;;;;;;;;105363;1250;61691;-64
2023/02/13 15:29:31;;;;;;;7.10;5.80;;;;;;;;;;105619;1246;61585;-67
2023/02/13 15:32:17;;;;;;;8.90;6.30;;;;;;;;;;105740;1263;61816;-63
2023/02/13 15:34:46;;;;;;;8.60;6.40;;;;;;;;;;105584;1259;61710;-63
2023/02/13 15:37:26;;;;;;;11.10;7.90;;;;;;;;;;105663;1247;62111;-62
2023/02/13 15:39:54;;;;;;;10.10;7.30;;;;;;;;;;105605;1247;62415;-63
2023/02/13 15:42:23;;;;;;;8.10;7.00;;;;;;;;;;105890;1247;61608;-64
2023/02/13 15:44:51;;;;;;;10.00;7.40;;;;;;;;;;105634;1249;61273;-64